Terminal Aerodrome Forecast
Issued by NWS Melbourne, FL

Home | Current Version | Previous Version | Text Only | Print | Product List | Glossary On
Versions: 1 2 3 4 5 6 7 8 9 10 11 12 13 14 15 16 17 18 19 20 21 22 23 24 25 26 27 28 29 30 31 32 33 34 35 36 37 38 39 40 41 42 43 44 45 46 47 48 49 50
000
FTUS42 KMLB 170536
TAFDAB
TAF
KDAB 170536Z 1706/1806 VRB03KT P6SM FEW035 SCT250
     FM171400 21004KT P6SM SCT030
     FM171700 09009KT P6SM SCT035 SCT250
     FM180000 18003KT P6SM SCT250=

USA.gov is the U.S. government's official web portal to all federal, state and local government web resources and services.